LTCF Airport Information

Runway Information
Runway 06 Length 11483 ft width 148 ft
Elevation 5873 ft Threshold 0 ft Heading 64
Runway 24 Length 11483 ft Width 148 ft
Elevation 5869 ft Threshold 0 ft Heading 244
Airport Frequencies
Type TWR Name TWR Frequency 122.4 MHZ
Airport Navaids
Type VOR-DME Name Kars Frequency 113800 KHZ
Type NDB Name Kars Frequency 431 KHZ
Airport Weather Information & NOTAM
ADDS - METARS form results

(2139 UTC 18 January 2020)
Data provider http://aviationweather.gov/metar/data/
 
METAR text: LTCF 182050Z 29003KT 9999 SCT035 M14/M18 Q1016
Conditions at: LTCF (KARS , TR) observed 2050 UTC 18 January 2020
Temperature: -14.0°C ( 7°F)
Dewpoint: -18.0°C (-0°F) [RH = 72%]
Pressure (altimeter): 30.00 inches Hg (1016.0 mb)
Winds: from the WNW (290 degrees) at 3 MPH (3 knots; 1.5 m/s)
Visibility: 6 or more miles (10+ km)
Ceiling: at least 12,000 feet AGL
Clouds: scattered clouds at 3500 feet AGL
Weather: no significant weather observed at this time

Forecast for: LTCF (KARS , TR)
Text: TAF LTCF 181940Z 1821/1906 VRB02KT 9999 SCT035
Forecast period: 2100 UTC 18 January 2020 to 0600 UTC 19 January 2020
Forecast type: FROM: standard forecast or significant change
Winds: variable direction winds at 2 MPH (2 knots; 1.0 m/s)
Visibility: 6 or more miles 10+ km)
Ceiling: at least 12,000 feet AGL
Clouds: scattered clouds at 3500 feet AGL
Weather: no significant weather forecast for this period